| Date | Time | Temp. (oF) | Dew Point (oF) | Rel. Hum. (%) | Press. (in.) | Wind Dir. | Wind Speed (mph) | Hourly Rainfall (in.) |
|
|---|---|---|---|---|---|---|---|---|---|
| 1 | 03/12 | 00:00 | 46 | 19 | 34 | 30.23 | NNW | 10 | 0.00 |
| 2 | 03/11 | 23:00 | 48 | 18 | 31 | 30.22 | WNW | 14 | 0.00 |
| 3 | 03/11 | 22:00 | 50 | 19 | 30 | 30.17 | NNW | 8 | 0.00 |
| 4 | 03/11 | 21:00 | 54 | 18 | 25 | 30.13 | NNW | 10 | 0.00 |
| 5 | 03/11 | 20:00 | 58 | 23 | 27 | 30.07 | WSW | 7 | 0.00 |
| 6 | 03/11 | 19:00 | 62 | 29 | 29 | 30.01 | WNW | 8 | 0.00 |
| 7 | 03/11 | 18:00 | 64 | 31 | 30 | 29.96 | WNW | 10 | 0.00 |
| 8 | 03/11 | 17:00 | 67 | 44 | 45 | 29.92 | NW | 7 | 0.00 |
| 9 | 03/11 | 16:00 | 62 | 51 | 68 | 29.90 | E | 0 | 0.00 |
| 10 | 03/11 | 15:00 | 61 | 51 | 71 | 29.91 | SSE | 0 | 0.00 |
| 11 | 03/11 | 14:00 | 59 | 50 | 74 | 29.91 | NNE | 0 | 0.00 |
| 12 | 03/11 | 13:00 | 57 | 50 | 79 | 29.93 | SSW | 0 | 0.00 |
| 13 | 03/11 | 12:00 | 53 | 48 | 85 | 29.95 | SW | 5 | 0.00 |
| 14 | 03/11 | 11:00 | 47 | 45 | 96 | 29.97 | SW | 4 | 0.00 |
| 15 | 03/11 | 10:00 | 44 | 44 | 100 | 29.98 | S | 4 | 0.00 |
| 16 | 03/11 | 09:00 | 42 | 41 | 100 | 30.01 | SW | 4 | 0.00 |
| 17 | 03/11 | 08:00 | 42 | 41 | 99 | 30.02 | SW | 4 | 0.00 |
| 18 | 03/11 | 07:00 | 41 | 40 | 98 | 30.03 | S | 4 | 0.00 |
| 19 | 03/11 | 06:00 | 41 | 40 | 97 | 30.06 | SSW | 8 | 0.00 |
| 20 | 03/11 | 05:00 | 41 | 39 | 94 | 30.08 | SW | 4 | 0.00 |
| 21 | 03/11 | 04:00 | 41 | 39 | 93 | 30.11 | SSE | 10 | 0.00 |
| 22 | 03/11 | 03:00 | 41 | 38 | 92 | 30.13 | S | 4 | 0.00 |
| 23 | 03/11 | 02:00 | 40 | 37 | 91 | 30.15 | S | 11 | 0.00 |
| 24 | 03/11 | 01:00 | 40 | 37 | 90 | 30.17 | S | 5 | 0.00 |